sensor_id;sensor_type;location;lat;lon;timestamp;P1;durP1;ratioP1;P2;durP2;ratioP2
75997;SDS011;64685;48.762;44.822;2023-07-02T00:00:04;6.00;;;2.83;;
75997;SDS011;64685;48.762;44.822;2023-07-02T00:05:12;6.93;;;2.97;;
75997;SDS011;64685;48.762;44.822;2023-07-02T00:10:15;6.72;;;2.63;;
75997;SDS011;64685;48.762;44.822;2023-07-02T00:15:19;5.85;;;2.63;;
75997;SDS011;64685;48.762;44.822;2023-07-02T00:20:21;7.30;;;3.08;;
75997;SDS011;64685;48.762;44.822;2023-07-02T00:25:24;7.63;;;3.30;;
75997;SDS011;64685;48.762;44.822;2023-07-02T00:30:26;7.57;;;3.00;;
75997;SDS011;64685;48.762;44.822;2023-07-02T00:35:30;6.05;;;2.83;;
75997;SDS011;64685;48.762;44.822;2023-07-02T00:40:32;6.57;;;3.22;;
75997;SDS011;64685;48.762;44.822;2023-07-02T00:45:35;6.93;;;3.03;;
75997;SDS011;64685;48.762;44.822;2023-07-02T00:50:38;7.35;;;3.00;;
75997;SDS011;64685;48.762;44.822;2023-07-02T00:55:41;7.03;;;3.53;;
75997;SDS011;64685;48.762;44.822;2023-07-02T01:00:44;7.68;;;3.40;;
75997;SDS011;64685;48.762;44.822;2023-07-02T01:05:47;7.95;;;3.75;;
75997;SDS011;64685;48.762;44.822;2023-07-02T01:10:50;7.45;;;3.65;;
75997;SDS011;64685;48.762;44.822;2023-07-02T01:15:53;7.45;;;3.78;;
75997;SDS011;64685;48.762;44.822;2023-07-02T01:20:56;6.97;;;3.30;;
75997;SDS011;64685;48.762;44.822;2023-07-02T01:26:00;7.22;;;3.63;;
75997;SDS011;64685;48.762;44.822;2023-07-02T01:31:03;8.63;;;3.78;;
75997;SDS011;64685;48.762;44.822;2023-07-02T01:36:07;7.78;;;3.55;;
75997;SDS011;64685;48.762;44.822;2023-07-02T01:41:10;8.23;;;3.78;;
75997;SDS011;64685;48.762;44.822;2023-07-02T01:46:12;9.02;;;4.07;;
75997;SDS011;64685;48.762;44.822;2023-07-02T01:51:15;8.13;;;4.05;;
75997;SDS011;64685;48.762;44.822;2023-07-02T01:56:18;7.15;;;4.03;;
75997;SDS011;64685;48.762;44.822;2023-07-02T02:01:20;6.97;;;3.75;;
75997;SDS011;64685;48.762;44.822;2023-07-02T02:06:23;6.80;;;3.88;;
75997;SDS011;64685;48.762;44.822;2023-07-02T02:11:26;9.10;;;3.70;;
75997;SDS011;64685;48.762;44.822;2023-07-02T02:16:28;7.70;;;3.70;;
75997;SDS011;64685;48.762;44.822;2023-07-02T02:21:32;8.93;;;3.65;;
75997;SDS011;64685;48.762;44.822;2023-07-02T02:26:35;7.30;;;3.88;;
75997;SDS011;64685;48.762;44.822;2023-07-02T02:31:38;7.82;;;3.85;;
75997;SDS011;64685;48.762;44.822;2023-07-02T02:36:41;8.40;;;3.88;;
75997;SDS011;64685;48.762;44.822;2023-07-02T02:41:45;6.82;;;3.28;;
75997;SDS011;64685;48.762;44.822;2023-07-02T02:46:50;7.82;;;4.00;;
75997;SDS011;64685;48.762;44.822;2023-07-02T02:51:53;8.00;;;3.67;;
75997;SDS011;64685;48.762;44.822;2023-07-02T02:56:56;6.57;;;3.55;;
75997;SDS011;64685;48.762;44.822;2023-07-02T03:01:58;7.85;;;3.85;;
75997;SDS011;64685;48.762;44.822;2023-07-02T03:07:01;6.35;;;3.45;;
75997;SDS011;64685;48.762;44.822;2023-07-02T03:12:05;7.20;;;3.95;;
75997;SDS011;64685;48.762;44.822;2023-07-02T03:17:08;7.97;;;3.90;;
75997;SDS011;64685;48.762;44.822;2023-07-02T03:22:11;7.80;;;4.15;;
75997;SDS011;64685;48.762;44.822;2023-07-02T03:27:13;9.13;;;4.85;;
75997;SDS011;64685;48.762;44.822;2023-07-02T03:32:16;8.85;;;4.38;;
75997;SDS011;64685;48.762;44.822;2023-07-02T03:37:18;7.05;;;3.90;;
75997;SDS011;64685;48.762;44.822;2023-07-02T03:42:21;6.80;;;3.90;;
75997;SDS011;64685;48.762;44.822;2023-07-02T03:47:23;7.10;;;3.83;;
75997;SDS011;64685;48.762;44.822;2023-07-02T03:52:26;7.75;;;4.47;;
75997;SDS011;64685;48.762;44.822;2023-07-02T03:57:29;10.10;;;4.50;;
75997;SDS011;64685;48.762;44.822;2023-07-02T04:02:32;7.15;;;4.07;;
75997;SDS011;64685;48.762;44.822;2023-07-02T04:07:35;8.20;;;4.60;;
75997;SDS011;64685;48.762;44.822;2023-07-02T04:12:37;8.40;;;4.43;;
75997;SDS011;64685;48.762;44.822;2023-07-02T04:17:40;7.43;;;4.22;;
75997;SDS011;64685;48.762;44.822;2023-07-02T04:22:42;7.90;;;4.93;;
75997;SDS011;64685;48.762;44.822;2023-07-02T04:27:45;7.47;;;4.53;;
75997;SDS011;64685;48.762;44.822;2023-07-02T04:32:52;7.20;;;4.40;;
75997;SDS011;64685;48.762;44.822;2023-07-02T04:42:57;9.18;;;4.50;;
75997;SDS011;64685;48.762;44.822;2023-07-02T04:48:00;8.38;;;4.70;;
75997;SDS011;64685;48.762;44.822;2023-07-02T04:53:03;7.35;;;4.97;;
75997;SDS011;64685;48.762;44.822;2023-07-02T05:03:08;8.23;;;4.93;;
75997;SDS011;64685;48.762;44.822;2023-07-02T05:08:10;7.63;;;5.00;;
75997;SDS011;64685;48.762;44.822;2023-07-02T05:13:13;7.15;;;5.00;;
75997;SDS011;64685;48.762;44.822;2023-07-02T05:18:16;8.18;;;5.38;;
75997;SDS011;64685;48.762;44.822;2023-07-02T05:23:18;7.40;;;5.28;;
75997;SDS011;64685;48.762;44.822;2023-07-02T05:28:21;9.55;;;5.43;;
75997;SDS011;64685;48.762;44.822;2023-07-02T05:33:23;11.05;;;5.65;;
75997;SDS011;64685;48.762;44.822;2023-07-02T05:38:26;8.88;;;5.20;;
75997;SDS011;64685;48.762;44.822;2023-07-02T05:43:29;8.07;;;5.82;;
75997;SDS011;64685;48.762;44.822;2023-07-02T05:48:32;7.78;;;5.30;;
75997;SDS011;64685;48.762;44.822;2023-07-02T05:53:35;8.70;;;5.82;;
75997;SDS011;64685;48.762;44.822;2023-07-02T05:58:39;8.80;;;5.85;;
75997;SDS011;64685;48.762;44.822;2023-07-02T06:03:50;9.25;;;6.32;;
75997;SDS011;64685;48.762;44.822;2023-07-02T06:08:53;9.52;;;5.75;;
75997;SDS011;64685;48.762;44.822;2023-07-02T06:13:55;7.60;;;5.60;;
75997;SDS011;64685;48.762;44.822;2023-07-02T06:18:58;9.07;;;5.55;;
75997;SDS011;64685;48.762;44.822;2023-07-02T06:24:01;8.88;;;5.57;;
75997;SDS011;64685;48.762;44.822;2023-07-02T06:29:04;10.63;;;6.10;;
75997;SDS011;64685;48.762;44.822;2023-07-02T06:34:06;8.65;;;5.57;;
75997;SDS011;64685;48.762;44.822;2023-07-02T06:39:10;9.07;;;5.93;;
75997;SDS011;64685;48.762;44.822;2023-07-02T06:44:13;8.25;;;5.60;;
75997;SDS011;64685;48.762;44.822;2023-07-02T06:49:16;8.73;;;5.70;;
75997;SDS011;64685;48.762;44.822;2023-07-02T06:54:18;8.35;;;5.35;;
75997;SDS011;64685;48.762;44.822;2023-07-02T06:59:21;9.15;;;4.90;;
75997;SDS011;64685;48.762;44.822;2023-07-02T07:04:24;9.48;;;5.43;;
75997;SDS011;64685;48.762;44.822;2023-07-02T07:09:27;7.38;;;4.97;;
75997;SDS011;64685;48.762;44.822;2023-07-02T07:14:30;8.13;;;4.50;;
75997;SDS011;64685;48.762;44.822;2023-07-02T07:19:32;9.75;;;5.25;;
75997;SDS011;64685;48.762;44.822;2023-07-02T07:24:35;8.38;;;5.47;;
75997;SDS011;64685;48.762;44.822;2023-07-02T07:29:38;7.63;;;4.93;;
75997;SDS011;64685;48.762;44.822;2023-07-02T07:34:40;7.60;;;4.53;;
75997;SDS011;64685;48.762;44.822;2023-07-02T07:39:43;7.93;;;4.95;;
75997;SDS011;64685;48.762;44.822;2023-07-02T07:44:46;7.20;;;5.03;;
75997;SDS011;64685;48.762;44.822;2023-07-02T07:49:48;7.00;;;4.35;;
75997;SDS011;64685;48.762;44.822;2023-07-02T07:54:51;8.43;;;4.70;;
75997;SDS011;64685;48.762;44.822;2023-07-02T07:59:54;7.30;;;4.72;;
75997;SDS011;64685;48.762;44.822;2023-07-02T08:04:56;6.47;;;4.18;;
75997;SDS011;64685;48.762;44.822;2023-07-02T08:09:59;7.45;;;4.15;;
75997;SDS011;64685;48.762;44.822;2023-07-02T08:15:05;6.95;;;4.22;;
75997;SDS011;64685;48.762;44.822;2023-07-02T08:20:08;12.23;;;4.47;;
75997;SDS011;64685;48.762;44.822;2023-07-02T08:25:12;6.97;;;4.05;;
75997;SDS011;64685;48.762;44.822;2023-07-02T08:30:15;7.43;;;3.97;;
75997;SDS011;64685;48.762;44.822;2023-07-02T08:35:17;5.88;;;3.60;;
75997;SDS011;64685;48.762;44.822;2023-07-02T08:40:20;14.10;;;4.53;;
75997;SDS011;64685;48.762;44.822;2023-07-02T08:45:23;5.82;;;3.95;;
75997;SDS011;64685;48.762;44.822;2023-07-02T08:50:28;6.05;;;3.50;;
75997;SDS011;64685;48.762;44.822;2023-07-02T08:55:31;6.70;;;4.22;;
75997;SDS011;64685;48.762;44.822;2023-07-02T09:00:34;6.07;;;3.90;;
75997;SDS011;64685;48.762;44.822;2023-07-02T09:05:50;7.70;;;4.47;;
75997;SDS011;64685;48.762;44.822;2023-07-02T09:10:54;6.60;;;4.07;;
75997;SDS011;64685;48.762;44.822;2023-07-02T09:16:07;6.32;;;3.97;;
75997;SDS011;64685;48.762;44.822;2023-07-02T09:21:10;8.30;;;4.30;;
75997;SDS011;64685;48.762;44.822;2023-07-02T09:26:19;8.02;;;4.60;;
75997;SDS011;64685;48.762;44.822;2023-07-02T09:31:25;4.72;;;3.45;;
75997;SDS011;64685;48.762;44.822;2023-07-02T09:36:28;6.05;;;3.80;;
75997;SDS011;64685;48.762;44.822;2023-07-02T09:41:30;6.40;;;3.50;;
75997;SDS011;64685;48.762;44.822;2023-07-02T09:46:34;5.50;;;3.58;;
75997;SDS011;64685;48.762;44.822;2023-07-02T09:51:45;6.60;;;3.63;;
75997;SDS011;64685;48.762;44.822;2023-07-02T09:56:48;7.03;;;4.07;;
75997;SDS011;64685;48.762;44.822;2023-07-02T10:01:51;7.43;;;3.70;;
75997;SDS011;64685;48.762;44.822;2023-07-02T10:06:55;4.75;;;3.28;;
75997;SDS011;64685;48.762;44.822;2023-07-02T10:11:58;6.47;;;3.80;;
75997;SDS011;64685;48.762;44.822;2023-07-02T10:17:01;6.90;;;3.65;;
75997;SDS011;64685;48.762;44.822;2023-07-02T10:22:04;6.68;;;3.90;;
75997;SDS011;64685;48.762;44.822;2023-07-02T10:27:10;7.00;;;4.15;;
75997;SDS011;64685;48.762;44.822;2023-07-02T10:32:12;5.15;;;3.50;;
75997;SDS011;64685;48.762;44.822;2023-07-02T10:37:15;7.38;;;3.90;;
75997;SDS011;64685;48.762;44.822;2023-07-02T10:42:17;7.65;;;3.40;;
75997;SDS011;64685;48.762;44.822;2023-07-02T10:47:20;6.38;;;3.47;;
75997;SDS011;64685;48.762;44.822;2023-07-02T10:52:23;6.38;;;3.30;;
75997;SDS011;64685;48.762;44.822;2023-07-02T10:57:26;5.45;;;3.08;;
75997;SDS011;64685;48.762;44.822;2023-07-02T11:02:33;7.30;;;3.10;;
75997;SDS011;64685;48.762;44.822;2023-07-02T11:07:38;9.07;;;3.70;;
75997;SDS011;64685;48.762;44.822;2023-07-02T11:12:41;5.57;;;3.20;;
75997;SDS011;64685;48.762;44.822;2023-07-02T11:22:46;7.00;;;3.53;;
75997;SDS011;64685;48.762;44.822;2023-07-02T11:27:49;5.90;;;3.40;;
75997;SDS011;64685;48.762;44.822;2023-07-02T11:37:56;6.88;;;3.45;;
75997;SDS011;64685;48.762;44.822;2023-07-02T11:48:01;7.53;;;3.65;;
75997;SDS011;64685;48.762;44.822;2023-07-02T11:53:04;6.88;;;4.00;;
75997;SDS011;64685;48.762;44.822;2023-07-02T12:03:09;6.28;;;3.15;;
75997;SDS011;64685;48.762;44.822;2023-07-02T12:08:12;7.00;;;3.75;;
75997;SDS011;64685;48.762;44.822;2023-07-02T12:13:15;6.38;;;3.50;;
75997;SDS011;64685;48.762;44.822;2023-07-02T12:23:20;7.22;;;3.53;;
75997;SDS011;64685;48.762;44.822;2023-07-02T12:33:25;8.00;;;3.95;;
75997;SDS011;64685;48.762;44.822;2023-07-02T12:38:27;12.77;;;5.13;;
75997;SDS011;64685;48.762;44.822;2023-07-02T12:48:33;6.18;;;3.67;;
75997;SDS011;64685;48.762;44.822;2023-07-02T12:53:35;7.05;;;3.80;;
75997;SDS011;64685;48.762;44.822;2023-07-02T12:58:38;7.85;;;3.72;;
75997;SDS011;64685;48.762;44.822;2023-07-02T13:08:47;6.38;;;3.90;;
75997;SDS011;64685;48.762;44.822;2023-07-02T13:13:50;7.80;;;3.85;;
75997;SDS011;64685;48.762;44.822;2023-07-02T13:18:52;6.88;;;3.90;;
75997;SDS011;64685;48.762;44.822;2023-07-02T13:23:57;8.18;;;4.15;;
75997;SDS011;64685;48.762;44.822;2023-07-02T13:29:00;7.47;;;3.83;;
75997;SDS011;64685;48.762;44.822;2023-07-02T13:34:02;6.72;;;3.55;;
75997;SDS011;64685;48.762;44.822;2023-07-02T13:39:05;6.05;;;3.67;;
75997;SDS011;64685;48.762;44.822;2023-07-02T13:44:09;8.25;;;4.00;;
75997;SDS011;64685;48.762;44.822;2023-07-02T13:49:11;8.73;;;3.78;;
75997;SDS011;64685;48.762;44.822;2023-07-02T13:54:14;6.05;;;3.58;;
75997;SDS011;64685;48.762;44.822;2023-07-02T13:59:17;6.80;;;3.50;;
75997;SDS011;64685;48.762;44.822;2023-07-02T14:04:21;6.93;;;3.75;;
75997;SDS011;64685;48.762;44.822;2023-07-02T14:09:24;9.43;;;3.70;;
75997;SDS011;64685;48.762;44.822;2023-07-02T14:14:26;7.20;;;4.05;;
75997;SDS011;64685;48.762;44.822;2023-07-02T14:19:29;7.28;;;4.10;;
75997;SDS011;64685;48.762;44.822;2023-07-02T14:24:33;8.25;;;4.15;;
75997;SDS011;64685;48.762;44.822;2023-07-02T14:29:36;6.85;;;3.75;;
75997;SDS011;64685;48.762;44.822;2023-07-02T14:34:39;6.60;;;3.70;;
75997;SDS011;64685;48.762;44.822;2023-07-02T14:39:42;8.57;;;3.90;;
75997;SDS011;64685;48.762;44.822;2023-07-02T14:45:04;9.68;;;4.47;;
75997;SDS011;64685;48.762;44.822;2023-07-02T14:50:07;7.00;;;3.75;;
75997;SDS011;64685;48.762;44.822;2023-07-02T14:55:10;7.72;;;3.58;;
75997;SDS011;64685;48.762;44.822;2023-07-02T15:00:13;7.90;;;3.95;;
75997;SDS011;64685;48.762;44.822;2023-07-02T15:05:16;7.80;;;4.00;;
75997;SDS011;64685;48.762;44.822;2023-07-02T15:10:19;9.93;;;3.85;;
75997;SDS011;64685;48.762;44.822;2023-07-02T15:15:22;6.75;;;3.90;;
75997;SDS011;64685;48.762;44.822;2023-07-02T15:20:24;7.85;;;3.97;;
75997;SDS011;64685;48.762;44.822;2023-07-02T15:25:29;7.38;;;3.83;;
75997;SDS011;64685;48.762;44.822;2023-07-02T15:30:32;7.20;;;3.92;;
75997;SDS011;64685;48.762;44.822;2023-07-02T15:35:39;9.30;;;4.45;;
75997;SDS011;64685;48.762;44.822;2023-07-02T15:40:42;7.80;;;4.20;;
75997;SDS011;64685;48.762;44.822;2023-07-02T15:45:46;6.75;;;3.40;;
75997;SDS011;64685;48.762;44.822;2023-07-02T15:50:49;9.70;;;4.20;;
75997;SDS011;64685;48.762;44.822;2023-07-02T15:55:56;6.47;;;3.78;;
75997;SDS011;64685;48.762;44.822;2023-07-02T16:06:13;8.65;;;3.88;;
75997;SDS011;64685;48.762;44.822;2023-07-02T16:11:16;10.57;;;4.53;;
75997;SDS011;64685;48.762;44.822;2023-07-02T16:16:19;8.25;;;3.78;;
75997;SDS011;64685;48.762;44.822;2023-07-02T16:21:22;10.15;;;3.95;;
75997;SDS011;64685;48.762;44.822;2023-07-02T16:26:25;8.18;;;4.03;;
75997;SDS011;64685;48.762;44.822;2023-07-02T16:31:27;7.15;;;3.95;;
75997;SDS011;64685;48.762;44.822;2023-07-02T16:36:30;8.40;;;4.05;;
75997;SDS011;64685;48.762;44.822;2023-07-02T16:41:33;8.35;;;4.28;;
75997;SDS011;64685;48.762;44.822;2023-07-02T16:46:38;8.02;;;4.10;;
75997;SDS011;64685;48.762;44.822;2023-07-02T16:51:43;7.70;;;4.10;;
75997;SDS011;64685;48.762;44.822;2023-07-02T16:56:54;10.65;;;4.15;;
75997;SDS011;64685;48.762;44.822;2023-07-02T17:01:59;8.00;;;4.40;;
75997;SDS011;64685;48.762;44.822;2023-07-02T17:07:02;8.68;;;4.32;;
75997;SDS011;64685;48.762;44.822;2023-07-02T17:12:09;9.15;;;4.55;;
75997;SDS011;64685;48.762;44.822;2023-07-02T17:17:17;8.40;;;4.28;;
75997;SDS011;64685;48.762;44.822;2023-07-02T17:22:25;8.35;;;4.43;;
75997;SDS011;64685;48.762;44.822;2023-07-02T17:27:31;8.75;;;4.63;;
75997;SDS011;64685;48.762;44.822;2023-07-02T17:32:34;10.00;;;4.78;;
75997;SDS011;64685;48.762;44.822;2023-07-02T17:37:37;10.93;;;6.07;;
75997;SDS011;64685;48.762;44.822;2023-07-02T17:42:39;15.85;;;5.90;;
75997;SDS011;64685;48.762;44.822;2023-07-02T17:47:42;11.65;;;6.00;;
75997;SDS011;64685;48.762;44.822;2023-07-02T17:52:45;10.38;;;5.75;;
75997;SDS011;64685;48.762;44.822;2023-07-02T17:57:47;11.07;;;5.97;;
75997;SDS011;64685;48.762;44.822;2023-07-02T18:02:50;10.63;;;5.80;;
75997;SDS011;64685;48.762;44.822;2023-07-02T18:07:53;13.68;;;5.60;;
75997;SDS011;64685;48.762;44.822;2023-07-02T18:12:56;11.52;;;5.32;;
75997;SDS011;64685;48.762;44.822;2023-07-02T18:17:58;11.65;;;5.22;;
75997;SDS011;64685;48.762;44.822;2023-07-02T18:23:01;11.60;;;5.70;;
75997;SDS011;64685;48.762;44.822;2023-07-02T18:28:05;9.85;;;5.07;;
75997;SDS011;64685;48.762;44.822;2023-07-02T18:33:09;9.95;;;5.03;;
75997;SDS011;64685;48.762;44.822;2023-07-02T18:38:13;10.10;;;5.03;;
75997;SDS011;64685;48.762;44.822;2023-07-02T18:43:16;10.90;;;5.47;;
75997;SDS011;64685;48.762;44.822;2023-07-02T18:48:20;10.10;;;5.90;;
75997;SDS011;64685;48.762;44.822;2023-07-02T18:53:24;10.75;;;5.80;;
75997;SDS011;64685;48.762;44.822;2023-07-02T18:58:28;9.15;;;5.03;;
75997;SDS011;64685;48.762;44.822;2023-07-02T19:03:31;11.25;;;5.65;;
75997;SDS011;64685;48.762;44.822;2023-07-02T19:08:34;10.13;;;5.65;;
75997;SDS011;64685;48.762;44.822;2023-07-02T19:13:38;10.20;;;4.82;;
75997;SDS011;64685;48.762;44.822;2023-07-02T19:18:40;8.57;;;4.55;;
75997;SDS011;64685;48.762;44.822;2023-07-02T19:23:44;9.40;;;4.95;;
75997;SDS011;64685;48.762;44.822;2023-07-02T19:28:47;10.32;;;5.20;;
75997;SDS011;64685;48.762;44.822;2023-07-02T19:33:50;11.80;;;5.97;;
75997;SDS011;64685;48.762;44.822;2023-07-02T19:38:52;9.65;;;5.30;;
75997;SDS011;64685;48.762;44.822;2023-07-02T19:43:55;10.40;;;6.13;;
75997;SDS011;64685;48.762;44.822;2023-07-02T19:48:58;11.45;;;5.90;;
75997;SDS011;64685;48.762;44.822;2023-07-02T19:54:04;9.02;;;5.28;;
75997;SDS011;64685;48.762;44.822;2023-07-02T19:59:07;10.40;;;5.60;;
75997;SDS011;64685;48.762;44.822;2023-07-02T20:04:14;12.25;;;6.00;;
75997;SDS011;64685;48.762;44.822;2023-07-02T20:09:24;10.48;;;5.43;;
75997;SDS011;64685;48.762;44.822;2023-07-02T20:14:26;12.75;;;6.35;;
75997;SDS011;64685;48.762;44.822;2023-07-02T20:19:32;10.43;;;5.72;;
75997;SDS011;64685;48.762;44.822;2023-07-02T20:24:35;13.85;;;6.75;;
75997;SDS011;64685;48.762;44.822;2023-07-02T20:29:38;13.32;;;6.93;;
75997;SDS011;64685;48.762;44.822;2023-07-02T20:34:41;13.43;;;7.10;;
75997;SDS011;64685;48.762;44.822;2023-07-02T20:39:44;12.10;;;6.78;;
75997;SDS011;64685;48.762;44.822;2023-07-02T20:44:50;14.27;;;6.28;;
75997;SDS011;64685;48.762;44.822;2023-07-02T20:49:52;11.52;;;6.43;;
75997;SDS011;64685;48.762;44.822;2023-07-02T20:54:55;12.20;;;6.80;;
75997;SDS011;64685;48.762;44.822;2023-07-02T20:59:57;13.80;;;7.05;;
75997;SDS011;64685;48.762;44.822;2023-07-02T21:05:02;12.85;;;7.55;;
75997;SDS011;64685;48.762;44.822;2023-07-02T21:10:06;13.38;;;8.48;;
75997;SDS011;64685;48.762;44.822;2023-07-02T21:15:09;13.65;;;7.82;;
75997;SDS011;64685;48.762;44.822;2023-07-02T21:20:12;11.43;;;7.25;;
75997;SDS011;64685;48.762;44.822;2023-07-02T21:25:14;15.50;;;8.55;;
75997;SDS011;64685;48.762;44.822;2023-07-02T21:30:17;16.35;;;7.53;;
75997;SDS011;64685;48.762;44.822;2023-07-02T21:35:20;13.68;;;7.55;;
75997;SDS011;64685;48.762;44.822;2023-07-02T21:40:22;13.25;;;7.40;;
75997;SDS011;64685;48.762;44.822;2023-07-02T21:45:25;12.20;;;7.05;;
75997;SDS011;64685;48.762;44.822;2023-07-02T21:50:27;12.52;;;7.03;;
75997;SDS011;64685;48.762;44.822;2023-07-02T21:55:30;13.23;;;7.00;;
75997;SDS011;64685;48.762;44.822;2023-07-02T22:00:35;11.93;;;7.07;;
75997;SDS011;64685;48.762;44.822;2023-07-02T22:05:37;11.90;;;6.60;;
75997;SDS011;64685;48.762;44.822;2023-07-02T22:10:40;13.88;;;7.13;;
75997;SDS011;64685;48.762;44.822;2023-07-02T22:15:43;13.88;;;6.65;;
75997;SDS011;64685;48.762;44.822;2023-07-02T22:30:52;12.10;;;6.70;;
75997;SDS011;64685;48.762;44.822;2023-07-02T22:35:54;11.05;;;6.97;;
75997;SDS011;64685;48.762;44.822;2023-07-02T22:40:57;11.95;;;6.60;;
75997;SDS011;64685;48.762;44.822;2023-07-02T22:45:59;12.32;;;6.90;;
75997;SDS011;64685;48.762;44.822;2023-07-02T22:51:02;11.82;;;6.32;;
75997;SDS011;64685;48.762;44.822;2023-07-02T22:56:11;12.48;;;6.68;;
75997;SDS011;64685;48.762;44.822;2023-07-02T23:01:15;14.93;;;7.03;;
75997;SDS011;64685;48.762;44.822;2023-07-02T23:06:18;13.73;;;6.97;;
75997;SDS011;64685;48.762;44.822;2023-07-02T23:11:25;12.52;;;7.60;;
75997;SDS011;64685;48.762;44.822;2023-07-02T23:16:28;15.70;;;7.50;;
75997;SDS011;64685;48.762;44.822;2023-07-02T23:21:30;13.88;;;7.47;;
75997;SDS011;64685;48.762;44.822;2023-07-02T23:26:33;13.32;;;7.55;;
75997;SDS011;64685;48.762;44.822;2023-07-02T23:31:39;13.63;;;7.82;;
75997;SDS011;64685;48.762;44.822;2023-07-02T23:36:42;14.85;;;7.05;;
75997;SDS011;64685;48.762;44.822;2023-07-02T23:41:46;12.60;;;7.05;;
75997;SDS011;64685;48.762;44.822;2023-07-02T23:46:49;12.07;;;7.55;;
75997;SDS011;64685;48.762;44.822;2023-07-02T23:51:52;10.90;;;6.72;;
75997;SDS011;64685;48.762;44.822;2023-07-02T23:56:55;12.00;;;6.78;;
